sensor_id;sensor_type;location;lat;lon;timestamp;P1;durP1;ratioP1;P2;durP2;ratioP2
71108;SDS011;59614;51.012;-1.648;2022-07-06T00:01:09;3.35;;;2.08;;
71108;SDS011;59614;51.012;-1.648;2022-07-06T00:03:35;2.42;;;1.70;;
71108;SDS011;59614;51.012;-1.648;2022-07-06T00:06:00;4.20;;;2.00;;
71108;SDS011;59614;51.012;-1.648;2022-07-06T00:08:26;3.47;;;2.17;;
71108;SDS011;59614;51.012;-1.648;2022-07-06T00:10:51;4.72;;;2.53;;
71108;SDS011;59614;51.012;-1.648;2022-07-06T00:13:17;5.30;;;2.83;;
71108;SDS011;59614;51.012;-1.648;2022-07-06T00:15:43;9.40;;;3.35;;
71108;SDS011;59614;51.012;-1.648;2022-07-06T00:18:08;6.93;;;3.47;;
71108;SDS011;59614;51.012;-1.648;2022-07-06T00:20:34;6.28;;;3.47;;
71108;SDS011;59614;51.012;-1.648;2022-07-06T00:22:59;5.60;;;3.50;;
71108;SDS011;59614;51.012;-1.648;2022-07-06T00:25:24;9.25;;;3.65;;
71108;SDS011;59614;51.012;-1.648;2022-07-06T00:27:50;8.70;;;4.40;;
71108;SDS011;59614;51.012;-1.648;2022-07-06T00:30:15;9.70;;;4.93;;
71108;SDS011;59614;51.012;-1.648;2022-07-06T00:32:41;9.40;;;5.75;;
71108;SDS011;59614;51.012;-1.648;2022-07-06T00:35:06;9.25;;;5.93;;
71108;SDS011;59614;51.012;-1.648;2022-07-06T00:37:32;9.48;;;6.43;;
71108;SDS011;59614;51.012;-1.648;2022-07-06T00:39:57;12.95;;;8.60;;
71108;SDS011;59614;51.012;-1.648;2022-07-06T00:42:23;20.48;;;12.80;;
71108;SDS011;59614;51.012;-1.648;2022-07-06T00:44:49;25.42;;;16.30;;
71108;SDS011;59614;51.012;-1.648;2022-07-06T00:47:15;25.20;;;15.85;;
71108;SDS011;59614;51.012;-1.648;2022-07-06T00:49:40;21.40;;;14.57;;
71108;SDS011;59614;51.012;-1.648;2022-07-06T00:52:24;24.23;;;14.23;;
71108;SDS011;59614;51.012;-1.648;2022-07-06T00:54:49;19.65;;;12.82;;
71108;SDS011;59614;51.012;-1.648;2022-07-06T00:57:16;17.95;;;11.90;;
71108;SDS011;59614;51.012;-1.648;2022-07-06T00:59:42;20.15;;;12.23;;
71108;SDS011;59614;51.012;-1.648;2022-07-06T01:02:08;18.80;;;11.82;;
71108;SDS011;59614;51.012;-1.648;2022-07-06T01:04:33;18.60;;;11.80;;
71108;SDS011;59614;51.012;-1.648;2022-07-06T01:07:00;20.27;;;12.40;;
71108;SDS011;59614;51.012;-1.648;2022-07-06T01:09:26;22.50;;;13.57;;
71108;SDS011;59614;51.012;-1.648;2022-07-06T01:11:52;24.98;;;15.70;;
71108;SDS011;59614;51.012;-1.648;2022-07-06T01:14:18;29.70;;;16.98;;
71108;SDS011;59614;51.012;-1.648;2022-07-06T01:16:45;21.98;;;13.52;;
71108;SDS011;59614;51.012;-1.648;2022-07-06T01:19:11;22.20;;;13.27;;
71108;SDS011;59614;51.012;-1.648;2022-07-06T01:21:39;17.15;;;11.30;;
71108;SDS011;59614;51.012;-1.648;2022-07-06T01:24:05;16.20;;;10.15;;
71108;SDS011;59614;51.012;-1.648;2022-07-06T01:26:30;13.73;;;9.20;;
71108;SDS011;59614;51.012;-1.648;2022-07-06T01:28:56;13.25;;;9.07;;
71108;SDS011;59614;51.012;-1.648;2022-07-06T01:31:23;10.95;;;7.15;;
71108;SDS011;59614;51.012;-1.648;2022-07-06T01:33:50;8.95;;;5.95;;
71108;SDS011;59614;51.012;-1.648;2022-07-06T01:36:17;10.17;;;5.90;;
71108;SDS011;59614;51.012;-1.648;2022-07-06T01:38:44;8.15;;;5.95;;
71108;SDS011;59614;51.012;-1.648;2022-07-06T01:41:10;10.23;;;5.85;;
71108;SDS011;59614;51.012;-1.648;2022-07-06T01:43:36;10.00;;;5.68;;
71108;SDS011;59614;51.012;-1.648;2022-07-06T01:46:01;9.27;;;5.85;;
71108;SDS011;59614;51.012;-1.648;2022-07-06T01:48:26;9.52;;;5.60;;
71108;SDS011;59614;51.012;-1.648;2022-07-06T01:50:52;8.63;;;5.47;;
71108;SDS011;59614;51.012;-1.648;2022-07-06T01:53:17;9.43;;;5.38;;
71108;SDS011;59614;51.012;-1.648;2022-07-06T01:55:43;8.45;;;5.07;;
71108;SDS011;59614;51.012;-1.648;2022-07-06T01:58:08;9.40;;;4.63;;
71108;SDS011;59614;51.012;-1.648;2022-07-06T02:00:33;7.72;;;4.75;;
71108;SDS011;59614;51.012;-1.648;2022-07-06T02:02:59;7.00;;;4.28;;
71108;SDS011;59614;51.012;-1.648;2022-07-06T02:05:24;6.47;;;4.63;;
71108;SDS011;59614;51.012;-1.648;2022-07-06T02:07:50;7.25;;;4.53;;
71108;SDS011;59614;51.012;-1.648;2022-07-06T02:10:15;6.68;;;4.28;;
71108;SDS011;59614;51.012;-1.648;2022-07-06T02:12:41;8.73;;;4.22;;
71108;SDS011;59614;51.012;-1.648;2022-07-06T02:15:06;7.40;;;3.60;;
71108;SDS011;59614;51.012;-1.648;2022-07-06T02:17:32;6.85;;;3.47;;
71108;SDS011;59614;51.012;-1.648;2022-07-06T02:19:58;5.30;;;2.92;;
71108;SDS011;59614;51.012;-1.648;2022-07-06T02:22:23;4.53;;;2.90;;
71108;SDS011;59614;51.012;-1.648;2022-07-06T02:24:48;8.25;;;3.00;;
71108;SDS011;59614;51.012;-1.648;2022-07-06T02:27:14;5.05;;;3.00;;
71108;SDS011;59614;51.012;-1.648;2022-07-06T02:29:39;5.05;;;2.50;;
71108;SDS011;59614;51.012;-1.648;2022-07-06T02:32:05;4.65;;;2.70;;
71108;SDS011;59614;51.012;-1.648;2022-07-06T02:34:31;4.60;;;2.67;;
71108;SDS011;59614;51.012;-1.648;2022-07-06T02:36:56;4.40;;;2.60;;
71108;SDS011;59614;51.012;-1.648;2022-07-06T02:39:21;5.28;;;2.75;;
71108;SDS011;59614;51.012;-1.648;2022-07-06T02:41:47;4.93;;;2.50;;
71108;SDS011;59614;51.012;-1.648;2022-07-06T02:44:12;6.55;;;3.05;;
71108;SDS011;59614;51.012;-1.648;2022-07-06T02:46:38;4.18;;;2.60;;
71108;SDS011;59614;51.012;-1.648;2022-07-06T02:49:03;5.55;;;2.60;;
71108;SDS011;59614;51.012;-1.648;2022-07-06T02:51:29;4.68;;;2.70;;
71108;SDS011;59614;51.012;-1.648;2022-07-06T02:53:54;4.10;;;2.40;;
71108;SDS011;59614;51.012;-1.648;2022-07-06T02:56:19;6.25;;;2.40;;
71108;SDS011;59614;51.012;-1.648;2022-07-06T02:58:45;4.45;;;2.60;;
71108;SDS011;59614;51.012;-1.648;2022-07-06T03:01:10;4.68;;;2.63;;
71108;SDS011;59614;51.012;-1.648;2022-07-06T03:03:36;5.00;;;2.60;;
71108;SDS011;59614;51.012;-1.648;2022-07-06T03:06:01;4.07;;;2.50;;
71108;SDS011;59614;51.012;-1.648;2022-07-06T03:08:26;5.43;;;2.65;;
71108;SDS011;59614;51.012;-1.648;2022-07-06T03:10:52;4.97;;;2.40;;
71108;SDS011;59614;51.012;-1.648;2022-07-06T03:13:17;3.75;;;2.45;;
71108;SDS011;59614;51.012;-1.648;2022-07-06T03:15:43;3.65;;;2.50;;
71108;SDS011;59614;51.012;-1.648;2022-07-06T03:18:08;5.03;;;2.65;;
71108;SDS011;59614;51.012;-1.648;2022-07-06T03:20:34;3.88;;;2.33;;
71108;SDS011;59614;51.012;-1.648;2022-07-06T03:22:59;4.03;;;2.65;;
71108;SDS011;59614;51.012;-1.648;2022-07-06T03:25:24;5.63;;;2.70;;
71108;SDS011;59614;51.012;-1.648;2022-07-06T03:27:50;4.43;;;2.45;;
71108;SDS011;59614;51.012;-1.648;2022-07-06T03:30:15;5.28;;;2.20;;
71108;SDS011;59614;51.012;-1.648;2022-07-06T03:32:41;6.47;;;2.25;;
71108;SDS011;59614;51.012;-1.648;2022-07-06T03:35:06;4.00;;;2.28;;
71108;SDS011;59614;51.012;-1.648;2022-07-06T03:37:32;5.20;;;2.63;;
71108;SDS011;59614;51.012;-1.648;2022-07-06T03:39:58;4.90;;;2.20;;
71108;SDS011;59614;51.012;-1.648;2022-07-06T03:42:23;3.03;;;1.92;;
71108;SDS011;59614;51.012;-1.648;2022-07-06T03:44:48;3.53;;;2.30;;
71108;SDS011;59614;51.012;-1.648;2022-07-06T03:47:14;3.83;;;2.25;;
71108;SDS011;59614;51.012;-1.648;2022-07-06T03:49:39;4.13;;;2.40;;
71108;SDS011;59614;51.012;-1.648;2022-07-06T03:52:05;3.08;;;2.20;;
71108;SDS011;59614;51.012;-1.648;2022-07-06T03:54:30;4.28;;;2.17;;
71108;SDS011;59614;51.012;-1.648;2022-07-06T03:56:56;4.32;;;2.40;;
71108;SDS011;59614;51.012;-1.648;2022-07-06T03:59:21;2.72;;;2.13;;
71108;SDS011;59614;51.012;-1.648;2022-07-06T04:01:47;3.38;;;2.38;;
71108;SDS011;59614;51.012;-1.648;2022-07-06T04:04:12;3.40;;;2.38;;
71108;SDS011;59614;51.012;-1.648;2022-07-06T04:06:37;5.38;;;2.40;;
71108;SDS011;59614;51.012;-1.648;2022-07-06T04:09:03;4.45;;;2.20;;
71108;SDS011;59614;51.012;-1.648;2022-07-06T04:11:28;4.05;;;2.30;;
71108;SDS011;59614;51.012;-1.648;2022-07-06T04:13:54;3.35;;;2.17;;
71108;SDS011;59614;51.012;-1.648;2022-07-06T04:16:20;4.22;;;2.35;;
71108;SDS011;59614;51.012;-1.648;2022-07-06T04:18:45;3.08;;;2.20;;
71108;SDS011;59614;51.012;-1.648;2022-07-06T04:21:11;4.47;;;2.25;;
71108;SDS011;59614;51.012;-1.648;2022-07-06T04:23:36;3.42;;;2.15;;
71108;SDS011;59614;51.012;-1.648;2022-07-06T04:26:02;4.35;;;2.20;;
71108;SDS011;59614;51.012;-1.648;2022-07-06T04:28:27;3.60;;;2.30;;
71108;SDS011;59614;51.012;-1.648;2022-07-06T04:30:53;3.55;;;2.00;;
71108;SDS011;59614;51.012;-1.648;2022-07-06T04:33:18;4.72;;;2.28;;
71108;SDS011;59614;51.012;-1.648;2022-07-06T04:35:43;2.60;;;1.88;;
71108;SDS011;59614;51.012;-1.648;2022-07-06T04:38:09;5.53;;;2.30;;
71108;SDS011;59614;51.012;-1.648;2022-07-06T04:40:34;6.68;;;2.28;;
71108;SDS011;59614;51.012;-1.648;2022-07-06T04:43:00;3.63;;;2.40;;
71108;SDS011;59614;51.012;-1.648;2022-07-06T04:45:25;4.43;;;2.25;;
71108;SDS011;59614;51.012;-1.648;2022-07-06T04:47:51;4.60;;;2.30;;
71108;SDS011;59614;51.012;-1.648;2022-07-06T04:50:16;3.60;;;2.38;;
71108;SDS011;59614;51.012;-1.648;2022-07-06T04:52:42;5.07;;;2.63;;
71108;SDS011;59614;51.012;-1.648;2022-07-06T04:55:07;6.97;;;3.05;;
71108;SDS011;59614;51.012;-1.648;2022-07-06T04:57:34;4.90;;;2.80;;
71108;SDS011;59614;51.012;-1.648;2022-07-06T04:59:59;3.88;;;2.60;;
71108;SDS011;59614;51.012;-1.648;2022-07-06T05:02:25;5.75;;;2.67;;
71108;SDS011;59614;51.012;-1.648;2022-07-06T05:04:50;5.40;;;2.67;;
71108;SDS011;59614;51.012;-1.648;2022-07-06T05:07:16;7.97;;;2.83;;
71108;SDS011;59614;51.012;-1.648;2022-07-06T05:09:41;4.35;;;2.50;;
71108;SDS011;59614;51.012;-1.648;2022-07-06T05:12:07;5.00;;;2.53;;
71108;SDS011;59614;51.012;-1.648;2022-07-06T05:14:33;5.13;;;2.50;;
71108;SDS011;59614;51.012;-1.648;2022-07-06T05:16:59;7.68;;;2.50;;
71108;SDS011;59614;51.012;-1.648;2022-07-06T05:19:24;4.60;;;2.80;;
71108;SDS011;59614;51.012;-1.648;2022-07-06T05:21:50;4.78;;;2.70;;
71108;SDS011;59614;51.012;-1.648;2022-07-06T05:24:15;3.40;;;2.30;;
71108;SDS011;59614;51.012;-1.648;2022-07-06T05:26:41;4.65;;;2.60;;
71108;SDS011;59614;51.012;-1.648;2022-07-06T05:29:07;4.93;;;2.85;;
71108;SDS011;59614;51.012;-1.648;2022-07-06T05:31:32;4.18;;;2.70;;
71108;SDS011;59614;51.012;-1.648;2022-07-06T05:33:58;5.03;;;2.40;;
71108;SDS011;59614;51.012;-1.648;2022-07-06T05:36:23;5.10;;;2.10;;
71108;SDS011;59614;51.012;-1.648;2022-07-06T05:38:49;3.35;;;2.20;;
71108;SDS011;59614;51.012;-1.648;2022-07-06T05:41:14;4.90;;;2.25;;
71108;SDS011;59614;51.012;-1.648;2022-07-06T05:43:39;3.78;;;2.20;;
71108;SDS011;59614;51.012;-1.648;2022-07-06T05:46:05;6.00;;;2.35;;
71108;SDS011;59614;51.012;-1.648;2022-07-06T05:48:30;4.85;;;2.40;;
71108;SDS011;59614;51.012;-1.648;2022-07-06T05:51:14;3.72;;;2.05;;
71108;SDS011;59614;51.012;-1.648;2022-07-06T05:53:39;5.18;;;2.40;;
71108;SDS011;59614;51.012;-1.648;2022-07-06T05:56:05;4.10;;;2.20;;
71108;SDS011;59614;51.012;-1.648;2022-07-06T05:58:30;3.50;;;2.20;;
71108;SDS011;59614;51.012;-1.648;2022-07-06T06:00:56;4.03;;;2.08;;
71108;SDS011;59614;51.012;-1.648;2022-07-06T06:03:21;4.45;;;2.10;;
71108;SDS011;59614;51.012;-1.648;2022-07-06T06:05:47;4.55;;;2.10;;
71108;SDS011;59614;51.012;-1.648;2022-07-06T06:08:12;4.20;;;2.20;;
71108;SDS011;59614;51.012;-1.648;2022-07-06T06:10:38;3.25;;;2.10;;
71108;SDS011;59614;51.012;-1.648;2022-07-06T06:13:03;4.57;;;2.05;;
71108;SDS011;59614;51.012;-1.648;2022-07-06T06:15:29;4.20;;;2.10;;
71108;SDS011;59614;51.012;-1.648;2022-07-06T06:17:54;2.88;;;2.10;;
71108;SDS011;59614;51.012;-1.648;2022-07-06T06:20:20;3.60;;;1.88;;
71108;SDS011;59614;51.012;-1.648;2022-07-06T06:25:13;2.95;;;1.98;;
71108;SDS011;59614;51.012;-1.648;2022-07-06T06:27:39;3.30;;;1.90;;
71108;SDS011;59614;51.012;-1.648;2022-07-06T06:30:05;2.80;;;1.83;;
71108;SDS011;59614;51.012;-1.648;2022-07-06T06:32:31;5.00;;;1.80;;
71108;SDS011;59614;51.012;-1.648;2022-07-06T06:34:56;2.55;;;1.90;;
71108;SDS011;59614;51.012;-1.648;2022-07-06T06:37:21;5.32;;;1.88;;
71108;SDS011;59614;51.012;-1.648;2022-07-06T06:39:47;2.75;;;1.90;;
71108;SDS011;59614;51.012;-1.648;2022-07-06T06:42:12;2.78;;;1.90;;
71108;SDS011;59614;51.012;-1.648;2022-07-06T06:44:37;3.45;;;2.00;;
71108;SDS011;59614;51.012;-1.648;2022-07-06T06:47:03;2.65;;;1.73;;
71108;SDS011;59614;51.012;-1.648;2022-07-06T06:49:28;4.53;;;2.22;;
71108;SDS011;59614;51.012;-1.648;2022-07-06T06:51:54;3.55;;;1.90;;
71108;SDS011;59614;51.012;-1.648;2022-07-06T06:54:19;2.83;;;1.90;;
71108;SDS011;59614;51.012;-1.648;2022-07-06T06:56:45;3.85;;;1.90;;
71108;SDS011;59614;51.012;-1.648;2022-07-06T06:59:10;6.80;;;1.90;;
71108;SDS011;59614;51.012;-1.648;2022-07-06T07:01:35;3.53;;;1.80;;
71108;SDS011;59614;51.012;-1.648;2022-07-06T07:04:01;4.38;;;1.90;;
71108;SDS011;59614;51.012;-1.648;2022-07-06T07:06:27;4.20;;;2.00;;
71108;SDS011;59614;51.012;-1.648;2022-07-06T07:08:52;4.82;;;1.88;;
71108;SDS011;59614;51.012;-1.648;2022-07-06T07:11:17;4.82;;;1.98;;
71108;SDS011;59614;51.012;-1.648;2022-07-06T07:13:43;4.90;;;2.03;;
71108;SDS011;59614;51.012;-1.648;2022-07-06T07:16:08;3.83;;;1.95;;
71108;SDS011;59614;51.012;-1.648;2022-07-06T07:18:34;3.88;;;1.80;;
71108;SDS011;59614;51.012;-1.648;2022-07-06T07:20:59;6.32;;;2.17;;
71108;SDS011;59614;51.012;-1.648;2022-07-06T07:23:25;4.07;;;1.90;;
71108;SDS011;59614;51.012;-1.648;2022-07-06T07:25:50;6.28;;;2.13;;
71108;SDS011;59614;51.012;-1.648;2022-07-06T07:28:15;5.30;;;2.00;;
71108;SDS011;59614;51.012;-1.648;2022-07-06T07:30:41;4.38;;;2.00;;
71108;SDS011;59614;51.012;-1.648;2022-07-06T07:33:06;3.28;;;1.90;;
71108;SDS011;59614;51.012;-1.648;2022-07-06T07:35:32;4.38;;;1.92;;
71108;SDS011;59614;51.012;-1.648;2022-07-06T07:37:58;1.77;;;1.60;;
71108;SDS011;59614;51.012;-1.648;2022-07-06T07:40:23;3.28;;;1.80;;
71108;SDS011;59614;51.012;-1.648;2022-07-06T07:42:49;2.80;;;1.80;;
71108;SDS011;59614;51.012;-1.648;2022-07-06T07:45:14;1.90;;;1.70;;
71108;SDS011;59614;51.012;-1.648;2022-07-06T07:47:40;3.50;;;1.80;;
71108;SDS011;59614;51.012;-1.648;2022-07-06T07:50:06;6.75;;;2.15;;
71108;SDS011;59614;51.012;-1.648;2022-07-06T07:52:32;7.15;;;2.10;;
71108;SDS011;59614;51.012;-1.648;2022-07-06T07:54:58;6.85;;;1.92;;
71108;SDS011;59614;51.012;-1.648;2022-07-06T07:57:23;2.53;;;1.65;;
71108;SDS011;59614;51.012;-1.648;2022-07-06T07:59:49;2.08;;;1.65;;
71108;SDS011;59614;51.012;-1.648;2022-07-06T08:02:14;2.67;;;1.75;;
71108;SDS011;59614;51.012;-1.648;2022-07-06T08:04:40;2.40;;;1.73;;
71108;SDS011;59614;51.012;-1.648;2022-07-06T08:07:05;3.05;;;1.75;;
71108;SDS011;59614;51.012;-1.648;2022-07-06T08:09:31;4.90;;;1.70;;
71108;SDS011;59614;51.012;-1.648;2022-07-06T08:11:57;1.73;;;1.60;;
71108;SDS011;59614;51.012;-1.648;2022-07-06T08:14:23;3.47;;;1.90;;
71108;SDS011;59614;51.012;-1.648;2022-07-06T08:16:49;3.70;;;1.70;;
71108;SDS011;59614;51.012;-1.648;2022-07-06T08:19:14;2.15;;;1.55;;
71108;SDS011;59614;51.012;-1.648;2022-07-06T08:21:40;3.80;;;1.70;;
71108;SDS011;59614;51.012;-1.648;2022-07-06T08:24:06;2.75;;;1.55;;
71108;SDS011;59614;51.012;-1.648;2022-07-06T08:26:32;6.82;;;1.98;;
71108;SDS011;59614;51.012;-1.648;2022-07-06T08:28:58;2.30;;;1.65;;
71108;SDS011;59614;51.012;-1.648;2022-07-06T08:31:24;4.40;;;1.80;;
71108;SDS011;59614;51.012;-1.648;2022-07-06T08:33:50;3.85;;;1.70;;
71108;SDS011;59614;51.012;-1.648;2022-07-06T08:36:18;2.88;;;1.80;;
71108;SDS011;59614;51.012;-1.648;2022-07-06T08:38:44;2.88;;;1.45;;
71108;SDS011;59614;51.012;-1.648;2022-07-06T08:41:09;2.42;;;1.60;;
71108;SDS011;59614;51.012;-1.648;2022-07-06T08:43:35;1.80;;;1.40;;
71108;SDS011;59614;51.012;-1.648;2022-07-06T08:46:01;2.25;;;1.70;;
71108;SDS011;59614;51.012;-1.648;2022-07-06T08:48:28;3.88;;;1.55;;
71108;SDS011;59614;51.012;-1.648;2022-07-06T08:50:59;3.08;;;1.77;;
71108;SDS011;59614;51.012;-1.648;2022-07-06T08:53:25;5.40;;;1.77;;
71108;SDS011;59614;51.012;-1.648;2022-07-06T08:55:50;3.17;;;1.80;;
71108;SDS011;59614;51.012;-1.648;2022-07-06T08:58:16;2.05;;;1.80;;
71108;SDS011;59614;51.012;-1.648;2022-07-06T09:00:42;3.00;;;1.80;;
71108;SDS011;59614;51.012;-1.648;2022-07-06T09:03:10;2.53;;;1.70;;
71108;SDS011;59614;51.012;-1.648;2022-07-06T09:05:37;2.47;;;1.70;;
71108;SDS011;59614;51.012;-1.648;2022-07-06T09:08:04;1.90;;;1.60;;
71108;SDS011;59614;51.012;-1.648;2022-07-06T09:10:30;3.88;;;1.40;;
71108;SDS011;59614;51.012;-1.648;2022-07-06T09:13:02;2.92;;;1.65;;
71108;SDS011;59614;51.012;-1.648;2022-07-06T09:15:29;3.78;;;1.60;;
71108;SDS011;59614;51.012;-1.648;2022-07-06T09:17:55;3.17;;;1.55;;
71108;SDS011;59614;51.012;-1.648;2022-07-06T09:20:22;1.90;;;1.50;;
71108;SDS011;59614;51.012;-1.648;2022-07-06T09:22:48;1.63;;;1.40;;
71108;SDS011;59614;51.012;-1.648;2022-07-06T09:25:15;3.55;;;1.50;;
71108;SDS011;59614;51.012;-1.648;2022-07-06T09:30:08;5.60;;;1.60;;
71108;SDS011;59614;51.012;-1.648;2022-07-06T09:32:42;1.98;;;1.25;;
71108;SDS011;59614;51.012;-1.648;2022-07-06T09:35:25;2.80;;;1.40;;
71108;SDS011;59614;51.012;-1.648;2022-07-06T09:38:02;1.83;;;1.33;;
71108;SDS011;59614;51.012;-1.648;2022-07-06T09:40:29;1.88;;;1.17;;
71108;SDS011;59614;51.012;-1.648;2022-07-06T09:45:47;2.60;;;1.33;;
71108;SDS011;59614;51.012;-1.648;2022-07-06T09:48:17;1.35;;;1.25;;
71108;SDS011;59614;51.012;-1.648;2022-07-06T09:50:47;1.75;;;0.93;;
71108;SDS011;59614;51.012;-1.648;2022-07-06T09:53:14;1.80;;;1.10;;
71108;SDS011;59614;51.012;-1.648;2022-07-06T09:55:44;3.35;;;1.08;;
71108;SDS011;59614;51.012;-1.648;2022-07-06T09:58:14;2.97;;;1.35;;
71108;SDS011;59614;51.012;-1.648;2022-07-06T10:00:42;2.22;;;1.30;;
71108;SDS011;59614;51.012;-1.648;2022-07-06T10:03:08;1.33;;;1.13;;
71108;SDS011;59614;51.012;-1.648;2022-07-06T10:05:38;1.23;;;0.93;;
71108;SDS011;59614;51.012;-1.648;2022-07-06T10:08:05;2.17;;;1.13;;
71108;SDS011;59614;51.012;-1.648;2022-07-06T10:10:34;2.25;;;1.20;;
71108;SDS011;59614;51.012;-1.648;2022-07-06T10:13:01;2.25;;;1.10;;
71108;SDS011;59614;51.012;-1.648;2022-07-06T10:15:29;3.00;;;1.10;;
71108;SDS011;59614;51.012;-1.648;2022-07-06T10:18:01;1.77;;;1.10;;
71108;SDS011;59614;51.012;-1.648;2022-07-06T10:20:29;2.40;;;0.95;;
71108;SDS011;59614;51.012;-1.648;2022-07-06T10:22:58;0.93;;;0.93;;
71108;SDS011;59614;51.012;-1.648;2022-07-06T10:25:25;1.17;;;1.10;;
71108;SDS011;59614;51.012;-1.648;2022-07-06T10:27:54;0.73;;;0.73;;
71108;SDS011;59614;51.012;-1.648;2022-07-06T10:30:20;3.63;;;1.27;;
71108;SDS011;59614;51.012;-1.648;2022-07-06T10:32:47;1.00;;;0.93;;
71108;SDS011;59614;51.012;-1.648;2022-07-06T10:35:15;2.50;;;1.30;;
71108;SDS011;59614;51.012;-1.648;2022-07-06T10:37:43;2.60;;;1.08;;
71108;SDS011;59614;51.012;-1.648;2022-07-06T10:40:09;2.05;;;1.10;;
71108;SDS011;59614;51.012;-1.648;2022-07-06T10:42:58;4.63;;;1.17;;
71108;SDS011;59614;51.012;-1.648;2022-07-06T10:48:35;2.17;;;1.30;;
71108;SDS011;59614;51.012;-1.648;2022-07-06T10:53:11;5.22;;;1.48;;
71108;SDS011;59614;51.012;-1.648;2022-07-06T10:55:39;3.08;;;1.10;;
71108;SDS011;59614;51.012;-1.648;2022-07-06T10:58:07;4.05;;;1.48;;
71108;SDS011;59614;51.012;-1.648;2022-07-06T11:03:39;1.55;;;1.30;;
71108;SDS011;59614;51.012;-1.648;2022-07-06T11:06:10;2.38;;;1.38;;
71108;SDS011;59614;51.012;-1.648;2022-07-06T11:08:41;5.45;;;1.40;;
71108;SDS011;59614;51.012;-1.648;2022-07-06T11:11:15;1.73;;;1.40;;
71108;SDS011;59614;51.012;-1.648;2022-07-06T11:13:47;1.50;;;1.40;;
71108;SDS011;59614;51.012;-1.648;2022-07-06T11:16:17;2.45;;;1.38;;
71108;SDS011;59614;51.012;-1.648;2022-07-06T11:18:47;1.55;;;1.38;;
71108;SDS011;59614;51.012;-1.648;2022-07-06T11:21:18;3.00;;;1.50;;
71108;SDS011;59614;51.012;-1.648;2022-07-06T11:23:49;4.57;;;1.70;;
71108;SDS011;59614;51.012;-1.648;2022-07-06T11:26:15;5.65;;;1.65;;
71108;SDS011;59614;51.012;-1.648;2022-07-06T11:28:43;6.53;;;1.70;;
71108;SDS011;59614;51.012;-1.648;2022-07-06T11:31:11;4.45;;;1.85;;
71108;SDS011;59614;51.012;-1.648;2022-07-06T11:33:36;4.25;;;1.60;;
71108;SDS011;59614;51.012;-1.648;2022-07-06T11:36:18;3.13;;;1.58;;
71108;SDS011;59614;51.012;-1.648;2022-07-06T11:38:47;2.63;;;1.77;;
71108;SDS011;59614;51.012;-1.648;2022-07-06T11:41:15;3.28;;;1.70;;
71108;SDS011;59614;51.012;-1.648;2022-07-06T11:43:45;3.13;;;1.80;;
71108;SDS011;59614;51.012;-1.648;2022-07-06T11:46:21;2.05;;;1.75;;
71108;SDS011;59614;51.012;-1.648;2022-07-06T11:48:51;4.45;;;1.80;;
71108;SDS011;59614;51.012;-1.648;2022-07-06T11:51:31;3.13;;;1.85;;
71108;SDS011;59614;51.012;-1.648;2022-07-06T11:53:59;5.43;;;2.17;;
71108;SDS011;59614;51.012;-1.648;2022-07-06T11:56:35;5.43;;;2.10;;
71108;SDS011;59614;51.012;-1.648;2022-07-06T11:59:01;4.82;;;2.17;;
71108;SDS011;59614;51.012;-1.648;2022-07-06T12:01:27;3.78;;;2.28;;
71108;SDS011;59614;51.012;-1.648;2022-07-06T12:03:59;10.38;;;2.38;;
71108;SDS011;59614;51.012;-1.648;2022-07-06T12:06:26;3.75;;;1.98;;
71108;SDS011;59614;51.012;-1.648;2022-07-06T12:08:53;3.65;;;1.90;;
71108;SDS011;59614;51.012;-1.648;2022-07-06T12:11:30;8.88;;;2.05;;
71108;SDS011;59614;51.012;-1.648;2022-07-06T12:13:58;2.25;;;1.83;;
71108;SDS011;59614;51.012;-1.648;2022-07-06T12:16:35;1.88;;;1.60;;
71108;SDS011;59614;51.012;-1.648;2022-07-06T12:19:02;3.13;;;1.85;;
71108;SDS011;59614;51.012;-1.648;2022-07-06T12:21:29;4.65;;;1.70;;
71108;SDS011;59614;51.012;-1.648;2022-07-06T12:23:55;4.45;;;1.90;;
71108;SDS011;59614;51.012;-1.648;2022-07-06T12:26:22;2.58;;;1.70;;
71108;SDS011;59614;51.012;-1.648;2022-07-06T12:34:19;3.22;;;1.70;;
71108;SDS011;59614;51.012;-1.648;2022-07-06T12:36:56;2.53;;;1.70;;
71108;SDS011;59614;51.012;-1.648;2022-07-06T12:39:24;6.00;;;1.70;;
71108;SDS011;59614;51.012;-1.648;2022-07-06T12:42:13;3.90;;;1.60;;
71108;SDS011;59614;51.012;-1.648;2022-07-06T12:44:51;3.23;;;1.63;;
71108;SDS011;59614;51.012;-1.648;2022-07-06T12:47:26;5.70;;;1.98;;
71108;SDS011;59614;51.012;-1.648;2022-07-06T12:50:05;4.72;;;2.03;;
71108;SDS011;59614;51.012;-1.648;2022-07-06T12:52:33;7.20;;;1.70;;
71108;SDS011;59614;51.012;-1.648;2022-07-06T12:55:00;4.93;;;1.90;;
71108;SDS011;59614;51.012;-1.648;2022-07-06T12:57:26;3.00;;;1.90;;
71108;SDS011;59614;51.012;-1.648;2022-07-06T13:07:19;8.00;;;2.20;;
71108;SDS011;59614;51.012;-1.648;2022-07-06T13:09:45;5.03;;;2.00;;
71108;SDS011;59614;51.012;-1.648;2022-07-06T13:12:10;7.75;;;2.08;;
71108;SDS011;59614;51.012;-1.648;2022-07-06T13:14:36;5.18;;;1.80;;
71108;SDS011;59614;51.012;-1.648;2022-07-06T13:17:01;4.30;;;2.08;;
71108;SDS011;59614;51.012;-1.648;2022-07-06T13:19:27;3.25;;;1.90;;
71108;SDS011;59614;51.012;-1.648;2022-07-06T13:21:52;13.00;;;2.60;;
71108;SDS011;59614;51.012;-1.648;2022-07-06T13:24:17;7.75;;;2.10;;
71108;SDS011;59614;51.012;-1.648;2022-07-06T13:26:43;3.55;;;1.85;;
71108;SDS011;59614;51.012;-1.648;2022-07-06T13:29:09;5.25;;;1.90;;
71108;SDS011;59614;51.012;-1.648;2022-07-06T13:31:36;5.43;;;2.17;;
71108;SDS011;59614;51.012;-1.648;2022-07-06T13:34:02;5.00;;;1.90;;
71108;SDS011;59614;51.012;-1.648;2022-07-06T13:36:27;3.88;;;2.03;;
71108;SDS011;59614;51.012;-1.648;2022-07-06T13:38:53;6.85;;;1.90;;
71108;SDS011;59614;51.012;-1.648;2022-07-06T13:41:18;6.55;;;2.00;;
71108;SDS011;59614;51.012;-1.648;2022-07-06T13:43:44;3.42;;;1.77;;
71108;SDS011;59614;51.012;-1.648;2022-07-06T13:46:09;5.90;;;1.90;;
71108;SDS011;59614;51.012;-1.648;2022-07-06T13:48:38;4.13;;;1.70;;
71108;SDS011;59614;51.012;-1.648;2022-07-06T13:51:04;3.88;;;1.80;;
71108;SDS011;59614;51.012;-1.648;2022-07-06T13:53:29;6.47;;;1.70;;
71108;SDS011;59614;51.012;-1.648;2022-07-06T13:55:56;12.68;;;2.30;;
71108;SDS011;59614;51.012;-1.648;2022-07-06T13:58:22;3.60;;;1.77;;
71108;SDS011;59614;51.012;-1.648;2022-07-06T14:00:47;3.85;;;1.67;;
71108;SDS011;59614;51.012;-1.648;2022-07-06T14:03:13;6.13;;;1.95;;
71108;SDS011;59614;51.012;-1.648;2022-07-06T14:05:38;4.85;;;1.63;;
71108;SDS011;59614;51.012;-1.648;2022-07-06T14:08:04;9.13;;;2.00;;
71108;SDS011;59614;51.012;-1.648;2022-07-06T14:10:29;4.35;;;1.88;;
71108;SDS011;59614;51.012;-1.648;2022-07-06T14:12:55;2.75;;;1.65;;
71108;SDS011;59614;51.012;-1.648;2022-07-06T14:15:20;2.35;;;1.60;;
71108;SDS011;59614;51.012;-1.648;2022-07-06T14:17:46;5.90;;;2.00;;
71108;SDS011;59614;51.012;-1.648;2022-07-06T14:20:14;2.47;;;1.63;;
71108;SDS011;59614;51.012;-1.648;2022-07-06T14:22:40;1.85;;;1.48;;
71108;SDS011;59614;51.012;-1.648;2022-07-06T14:25:06;6.80;;;1.60;;
71108;SDS011;59614;51.012;-1.648;2022-07-06T14:27:32;7.30;;;1.70;;
71108;SDS011;59614;51.012;-1.648;2022-07-06T14:29:58;4.03;;;1.77;;
71108;SDS011;59614;51.012;-1.648;2022-07-06T14:32:24;4.63;;;1.63;;
71108;SDS011;59614;51.012;-1.648;2022-07-06T14:34:50;3.45;;;1.80;;
71108;SDS011;59614;51.012;-1.648;2022-07-06T14:37:15;7.57;;;1.90;;
71108;SDS011;59614;51.012;-1.648;2022-07-06T14:39:41;3.08;;;1.90;;
71108;SDS011;59614;51.012;-1.648;2022-07-06T14:42:07;3.60;;;1.70;;
71108;SDS011;59614;51.012;-1.648;2022-07-06T14:44:33;7.30;;;2.00;;
71108;SDS011;59614;51.012;-1.648;2022-07-06T14:46:58;3.53;;;1.83;;
71108;SDS011;59614;51.012;-1.648;2022-07-06T14:49:24;4.00;;;1.90;;
71108;SDS011;59614;51.012;-1.648;2022-07-06T14:51:49;3.90;;;1.77;;
71108;SDS011;59614;51.012;-1.648;2022-07-06T14:54:15;6.85;;;2.03;;
71108;SDS011;59614;51.012;-1.648;2022-07-06T14:56:40;4.32;;;2.10;;
71108;SDS011;59614;51.012;-1.648;2022-07-06T14:59:06;3.72;;;1.70;;